createdAt,value
2023-04-21T00:02:23.361Z,20.75
2023-04-21T00:04:52.041Z,20.00
2023-04-21T00:07:20.474Z,18.00
2023-04-21T00:09:48.364Z,16.75
2023-04-21T00:12:16.249Z,21.00
2023-04-21T00:14:44.654Z,17.50
2023-04-21T00:17:12.603Z,17.25
2023-04-21T00:19:40.620Z,17.67
2023-04-21T00:22:12.321Z,17.33
2023-04-21T00:24:40.537Z,19.00
2023-04-21T00:27:09.233Z,19.25
2023-04-21T00:29:37.261Z,16.50
2023-04-21T00:32:08.559Z,20.25
2023-04-21T00:34:36.637Z,18.25
2023-04-21T00:37:04.601Z,17.25
2023-04-21T00:39:33.882Z,16.50
2023-04-21T00:42:02.605Z,17.00
2023-04-21T00:44:30.535Z,18.75
2023-04-21T00:46:59.032Z,19.25
2023-04-21T00:49:27.064Z,16.75
2023-04-21T00:51:55.403Z,23.00
2023-04-21T00:54:24.868Z,30.00
2023-04-21T00:56:52.722Z,30.50
2023-04-21T00:59:22.108Z,25.75
2023-04-21T01:01:50.284Z,85.25
2023-04-21T01:04:18.430Z,68.67
2023-04-21T01:06:46.452Z,73.00
2023-04-21T01:09:14.580Z,113.33
2023-04-21T01:11:42.551Z,40.67
2023-04-21T01:14:10.471Z,37.50
2023-04-21T01:16:40.168Z,32.75
2023-04-21T01:19:08.654Z,32.00
2023-04-21T01:21:41.648Z,29.75
2023-04-21T01:24:10.236Z,23.00
2023-04-21T01:26:38.281Z,24.25
2023-04-21T01:29:06.781Z,20.25
2023-04-21T01:31:34.932Z,20.67
2023-04-21T01:34:05.987Z,21.00
2023-04-21T01:36:34.102Z,21.00
2023-04-21T01:39:02.068Z,21.00
2023-04-21T01:41:31.296Z,21.25
2023-04-21T01:43:59.292Z,19.25
2023-04-21T01:46:27.344Z,20.33
2023-04-21T01:48:55.336Z,20.25
2023-04-21T01:51:23.326Z,18.75
2023-04-21T01:53:51.253Z,21.00
2023-04-21T01:56:19.675Z,20.67
2023-04-21T01:58:48.101Z,19.50
2023-04-21T02:01:16.410Z,19.50
2023-04-21T02:03:44.683Z,20.00
2023-04-21T02:06:14.194Z,21.33
2023-04-21T02:08:42.122Z,20.75
2023-04-21T02:11:10.108Z,17.75
2023-04-21T02:13:41.255Z,20.25
2023-04-21T02:16:14.019Z,23.00
2023-04-21T02:18:42.530Z,23.75
2023-04-21T02:21:10.717Z,22.50
2023-04-21T02:23:38.870Z,20.75
2023-04-21T02:26:06.807Z,23.00
2023-04-21T02:28:34.820Z,21.75
2023-04-21T02:31:02.826Z,20.75
2023-04-21T02:33:35.230Z,21.25
2023-04-21T02:36:03.705Z,21.75
2023-04-21T02:38:31.613Z,18.33
2023-04-21T02:40:59.526Z,19.75
2023-04-21T02:43:27.498Z,23.00
2023-04-21T02:45:56.995Z,22.25
2023-04-21T02:48:24.945Z,18.75
2023-04-21T02:50:53.499Z,21.75
2023-04-21T02:53:21.643Z,20.00
2023-04-21T02:55:49.887Z,20.25
2023-04-21T02:58:19.092Z,15.75
2023-04-21T03:00:47.631Z,20.00
2023-04-21T03:03:16.213Z,19.50
2023-04-21T03:05:44.351Z,19.50
2023-04-21T03:08:12.316Z,22.00
2023-04-21T03:10:40.554Z,23.75
2023-04-21T03:13:08.618Z,23.25
2023-04-21T03:15:36.551Z,25.67
2023-04-21T03:18:04.694Z,25.25
2023-04-21T03:20:32.717Z,17.75
2023-04-21T03:23:00.934Z,17.00
2023-04-21T03:25:29.587Z,17.25
2023-04-21T03:27:57.616Z,15.75
2023-04-21T03:30:26.610Z,15.50
2023-04-21T03:32:58.855Z,17.75
2023-04-21T03:35:27.205Z,16.25
2023-04-21T03:37:55.232Z,19.50
2023-04-21T03:40:23.281Z,16.00
2023-04-21T03:42:51.384Z,18.25
2023-04-21T03:45:22.690Z,15.67
2023-04-21T03:47:55.176Z,16.00
2023-04-21T03:50:23.725Z,16.75
2023-04-21T03:52:53.989Z,15.50
2023-04-21T03:55:22.051Z,16.75
2023-04-21T03:57:50.318Z,16.25
2023-04-21T04:00:18.234Z,15.75
2023-04-21T04:02:46.826Z,16.00
2023-04-21T04:05:15.142Z,20.25
2023-04-21T04:07:43.108Z,18.25
2023-04-21T04:10:12.013Z,18.75
2023-04-21T04:12:40.291Z,20.50
2023-04-21T04:15:08.552Z,17.75
2023-04-21T04:17:36.624Z,14.25
2023-04-21T04:20:07.091Z,18.75
2023-04-21T04:22:35.111Z,16.50
2023-04-21T04:25:03.950Z,17.75
2023-04-21T04:27:32.468Z,17.75
2023-04-21T04:30:00.481Z,17.00
2023-04-21T04:32:28.634Z,20.75
2023-04-21T04:34:56.791Z,17.00
2023-04-21T04:37:25.807Z,23.00
2023-04-21T04:39:54.189Z,21.75
2023-04-21T04:42:22.157Z,20.50
2023-04-21T04:44:53.309Z,15.75
2023-04-21T04:47:21.418Z,16.75
2023-04-21T04:49:49.420Z,16.75
2023-04-21T04:52:17.210Z,20.00
2023-04-21T04:54:45.099Z,17.50
2023-04-21T04:57:13.159Z,17.00
2023-04-21T04:59:41.050Z,18.25
2023-04-21T05:02:10.037Z,18.00
2023-04-21T05:04:38.522Z,17.00
2023-04-21T05:07:07.855Z,21.25
2023-04-21T05:09:35.916Z,22.50
2023-04-21T05:12:04.274Z,19.75
2023-04-21T05:14:32.277Z,19.00
2023-04-21T05:17:00.442Z,21.75
2023-04-21T05:19:28.424Z,23.25
2023-04-21T05:22:02.934Z,22.67
2023-04-21T05:24:30.971Z,23.00
2023-04-21T05:26:58.867Z,22.67
2023-04-21T05:29:27.185Z,21.75
2023-04-21T05:31:55.279Z,22.25
2023-04-21T05:34:23.271Z,24.75
2023-04-21T05:36:52.363Z,23.00
2023-04-21T05:39:20.396Z,22.67
2023-04-21T05:41:48.692Z,21.75
2023-04-21T05:44:18.316Z,22.67
2023-04-21T05:46:46.480Z,22.25
2023-04-21T05:49:15.115Z,22.00
2023-04-21T05:51:43.114Z,20.00
2023-04-21T05:54:11.083Z,21.25
2023-04-21T05:56:39.090Z,19.50
2023-04-21T05:59:07.285Z,19.75
2023-04-21T06:01:35.980Z,19.50
2023-04-21T06:04:04.521Z,20.25
2023-04-21T06:06:32.620Z,21.00
2023-04-21T06:09:00.647Z,17.50
2023-04-21T06:11:28.584Z,22.75
2023-04-21T06:13:58.731Z,24.50
2023-04-21T06:16:27.362Z,26.00
2023-04-21T06:18:55.547Z,29.25
2023-04-21T06:21:23.468Z,29.00
2023-04-21T06:23:51.579Z,25.50
2023-04-21T06:26:19.572Z,23.00
2023-04-21T06:28:47.549Z,23.00
2023-04-21T06:31:15.916Z,24.00
2023-04-21T06:33:43.959Z,22.00
2023-04-21T06:36:11.796Z,22.75
2023-04-21T06:38:41.694Z,22.75
2023-04-21T06:41:10.200Z,22.75
2023-04-21T06:43:38.145Z,22.75
2023-04-21T06:46:06.072Z,19.25
2023-04-21T06:48:34.052Z,18.00
2023-04-21T06:51:02.842Z,23.50
2023-04-21T06:53:31.004Z,22.00
2023-04-21T06:55:59.201Z,24.00
2023-04-21T06:58:27.299Z,23.50
2023-04-21T07:00:55.282Z,21.00
2023-04-21T07:03:23.410Z,22.00
2023-04-21T07:05:51.611Z,20.00
2023-04-21T07:08:19.773Z,13.00
2023-04-21T07:10:47.805Z,15.00
2023-04-21T07:13:16.254Z,13.00
2023-04-21T07:15:44.186Z,13.25
2023-04-21T07:18:12.176Z,8.50
2023-04-21T07:20:40.138Z,6.00
2023-04-21T07:23:08.297Z,6.75
2023-04-21T07:25:36.748Z,6.50
2023-04-21T07:28:05.021Z,7.75
2023-04-21T07:30:33.088Z,6.00
2023-04-21T07:33:01.313Z,6.00
2023-04-21T07:35:29.434Z,5.75
2023-04-21T07:37:57.446Z,7.00
2023-04-21T07:40:25.622Z,8.00
2023-04-21T07:42:53.675Z,7.25
2023-04-21T07:45:21.652Z,8.50
2023-04-21T07:47:49.717Z,6.00
2023-04-21T07:50:17.776Z,6.75
2023-04-21T07:52:45.974Z,6.75
2023-04-21T07:55:14.293Z,5.25
2023-04-21T07:57:42.239Z,5.75
2023-04-21T08:00:11.318Z,7.00
2023-04-21T08:02:42.308Z,7.50
2023-04-21T08:05:10.569Z,7.00
2023-04-21T08:07:39.529Z,7.75
2023-04-21T08:10:09.761Z,5.50
2023-04-21T08:16:16.511Z,7.00
2023-04-21T08:19:36.435Z,7.00
2023-04-21T08:22:55.568Z,7.50
2023-04-21T08:26:10.805Z,6.00
2023-04-21T08:29:39.689Z,6.50
2023-04-21T08:33:00.389Z,7.00
2023-04-21T08:36:38.605Z,9.00
2023-04-21T08:39:45.194Z,9.00
2023-04-21T08:42:28.343Z,7.00
2023-04-21T08:45:02.311Z,7.00
2023-04-21T08:47:40.401Z,8.50
2023-04-21T08:50:25.787Z,7.50
2023-04-21T08:52:56.660Z,6.00
2023-04-21T08:55:39.140Z,10.00
2023-04-21T08:58:18.876Z,6.50
2023-04-21T09:00:54.821Z,7.00
2023-04-21T09:03:43.027Z,6.50
2023-04-21T09:07:11.484Z,5.67
2023-04-21T09:09:55.764Z,4.50
2023-04-21T09:12:24.215Z,6.00
2023-04-21T09:14:52.570Z,4.50
2023-04-21T09:17:28.940Z,4.00
2023-04-21T09:19:57.292Z,6.00
2023-04-21T09:22:27.149Z,4.50
2023-04-21T09:25:01.530Z,3.00
2023-04-21T09:27:32.440Z,5.00
2023-04-21T09:30:07.471Z,4.00
2023-04-21T09:32:41.989Z,5.00
2023-04-21T09:35:11.125Z,4.00
2023-04-21T09:37:39.543Z,3.50
2023-04-21T09:40:16.473Z,4.00
2023-04-21T09:42:47.573Z,3.00
2023-04-21T09:45:41.704Z,3.00
2023-04-21T09:48:40.693Z,3.00
2023-04-21T09:51:42.715Z,3.00
2023-04-21T09:54:46.796Z,4.50
2023-04-21T09:57:30.719Z,4.00
2023-04-21T10:00:33.572Z,3.00
2023-04-21T10:03:13.946Z,4.00
2023-04-21T10:06:03.581Z,4.00
2023-04-21T10:09:02.345Z,5.00
2023-04-21T10:11:34.599Z,3.00
2023-04-21T10:14:23.840Z,4.00
2023-04-21T10:17:11.699Z,4.00
2023-04-21T10:19:51.348Z,5.00
2023-04-21T10:22:31.406Z,3.00
2023-04-21T10:25:19.983Z,3.50
2023-04-21T10:28:12.814Z,4.00
2023-04-21T10:32:09.488Z,3.00
2023-04-21T10:37:47.064Z,4.00
2023-04-21T10:41:14.114Z,3.00
2023-04-21T10:43:49.164Z,3.00
2023-04-21T10:46:40.934Z,3.50
2023-04-21T10:49:25.068Z,6.00
2023-04-21T10:52:05.728Z,5.00
2023-04-21T10:54:54.998Z,5.00
2023-04-21T10:57:33.720Z,5.50
2023-04-21T11:00:09.150Z,6.00
2023-04-21T11:03:38.134Z,7.00
2023-04-21T11:06:35.103Z,4.50
2023-04-21T11:09:55.395Z,3.00
2023-04-21T11:12:39.076Z,4.00
2023-04-21T11:16:01.280Z,6.00
2023-04-21T11:19:45.683Z,6.00
2023-04-21T11:23:20.961Z,7.00
2023-04-21T11:26:16.542Z,5.00
2023-04-21T11:29:01.187Z,4.00
2023-04-21T11:32:13.307Z,5.00
2023-04-21T11:38:00.722Z,6.00
2023-04-21T11:41:24.761Z,6.00
2023-04-21T11:44:02.161Z,4.50
2023-04-21T11:46:55.726Z,6.00
2023-04-21T11:50:27.878Z,6.00
2023-04-21T11:53:30.072Z,6.00
2023-04-21T11:57:02.577Z,5.50
2023-04-21T12:00:34.577Z,5.00
2023-04-21T12:04:01.497Z,7.00
2023-04-21T12:07:31.381Z,4.00
2023-04-21T12:11:00.863Z,3.00
2023-04-21T12:16:46.415Z,7.00
2023-04-21T12:20:30.307Z,6.00
2023-04-21T12:23:28.145Z,6.00
2023-04-21T12:25:59.800Z,4.50
2023-04-21T12:29:20.244Z,5.00
2023-04-21T12:32:32.365Z,9.00
2023-04-21T12:35:43.566Z,6.00
2023-04-21T12:38:57.523Z,6.00
2023-04-21T12:42:46.570Z,5.00
2023-04-21T12:45:55.785Z,5.00
2023-04-21T12:49:42.018Z,6.00
2023-04-21T12:52:35.431Z,7.00
2023-04-21T12:55:37.996Z,4.50
2023-04-21T12:58:49.994Z,6.00
2023-04-21T13:02:19.621Z,7.00
2023-04-21T13:08:53.158Z,6.00
2023-04-21T13:12:09.308Z,5.00
2023-04-21T13:15:09.312Z,5.00
2023-04-21T13:18:03.852Z,6.00
2023-04-21T13:21:46.968Z,6.00
2023-04-21T13:24:15.487Z,5.00
2023-04-21T13:27:53.520Z,4.00
2023-04-21T13:30:36.807Z,5.00
2023-04-21T13:33:08.298Z,7.00
2023-04-21T13:35:42.456Z,5.00
2023-04-21T13:38:18.485Z,4.50
2023-04-21T13:43:33.498Z,4.00
2023-04-21T13:46:01.967Z,6.00
2023-04-21T13:48:30.751Z,7.00
2023-04-21T13:51:04.557Z,6.00
2023-04-21T13:56:00.930Z,5.00
2023-04-21T13:58:30.656Z,6.00
2023-04-21T14:01:02.194Z,6.00
2023-04-21T14:03:30.966Z,5.00
2023-04-21T14:06:02.112Z,6.00
2023-04-21T14:08:35.999Z,6.00
2023-04-21T14:11:04.732Z,6.00
2023-04-21T14:13:51.957Z,9.00
2023-04-21T14:16:29.969Z,7.50
2023-04-21T14:18:58.276Z,6.50
2023-04-21T14:21:26.489Z,5.50
2023-04-21T14:23:54.980Z,6.50
2023-04-21T14:26:25.663Z,6.00
2023-04-21T14:28:53.865Z,8.33
2023-04-21T14:31:25.305Z,7.00
2023-04-21T14:34:01.852Z,6.00
2023-04-21T14:36:32.408Z,8.00
2023-04-21T14:39:06.007Z,4.50
2023-04-21T14:41:44.247Z,6.00
2023-04-21T14:44:23.239Z,5.50
2023-04-21T14:47:10.261Z,7.00
2023-04-21T14:49:41.886Z,6.00
2023-04-21T14:52:15.599Z,7.00
2023-04-21T14:54:49.752Z,6.00
2023-04-21T14:57:31.811Z,8.00
2023-04-21T15:00:02.387Z,8.00
2023-04-21T15:02:39.778Z,4.00
2023-04-21T15:05:14.275Z,7.00
2023-04-21T15:07:57.036Z,7.00
2023-04-21T15:10:44.179Z,5.00
2023-04-21T15:13:28.810Z,7.00
2023-04-21T15:18:44.679Z,9.00
2023-04-21T15:21:21.596Z,10.00
2023-04-21T15:23:52.732Z,9.00
2023-04-21T15:26:26.913Z,11.00
2023-04-21T15:29:04.879Z,9.00
2023-04-21T15:31:39.763Z,10.00
2023-04-21T15:34:19.594Z,11.00
2023-04-21T15:36:56.427Z,8.00
2023-04-21T15:39:32.878Z,8.00
2023-04-21T15:42:08.539Z,8.00
2023-04-21T15:44:48.211Z,10.00
2023-04-21T15:47:28.054Z,11.00
2023-04-21T15:50:13.119Z,10.00
2023-04-21T15:52:57.893Z,10.00
2023-04-21T15:55:39.929Z,13.00
2023-04-21T15:58:31.616Z,11.00
2023-04-21T16:01:42.637Z,12.00
2023-04-21T16:04:24.681Z,11.00
2023-04-21T16:07:02.297Z,9.00
2023-04-21T16:09:41.802Z,11.00
2023-04-21T16:12:20.996Z,8.00
2023-04-21T16:15:23.811Z,7.00
2023-04-21T16:18:13.337Z,7.00
2023-04-21T16:21:12.445Z,7.00
2023-04-21T16:23:49.157Z,9.00
2023-04-21T16:26:38.027Z,8.00
2023-04-21T16:29:22.508Z,7.00
2023-04-21T16:32:10.063Z,8.00
2023-04-21T16:34:47.512Z,9.00
2023-04-21T16:37:27.289Z,7.00
2023-04-21T16:39:58.442Z,9.00
2023-04-21T16:42:26.837Z,7.00
2023-04-21T16:44:59.263Z,15.00
2023-04-21T16:47:30.944Z,14.00
2023-04-21T16:50:20.393Z,9.00
2023-04-21T16:52:51.566Z,10.00
2023-04-21T16:55:28.719Z,11.00
2023-04-21T16:58:03.202Z,8.00
2023-04-21T17:00:41.753Z,11.00
2023-04-21T17:03:18.871Z,9.00
2023-04-21T17:08:24.266Z,6.00
2023-04-21T17:11:00.666Z,7.00
2023-04-21T17:13:40.158Z,8.00
2023-04-21T17:16:33.533Z,12.00
2023-04-21T17:19:07.045Z,14.00
2023-04-21T17:21:35.962Z,16.00
2023-04-21T17:24:16.470Z,15.00
2023-04-21T17:27:00.572Z,15.00
2023-04-21T17:29:32.417Z,18.00
2023-04-21T17:32:11.220Z,12.00
2023-04-21T17:34:53.189Z,11.00
2023-04-21T17:37:24.648Z,9.50
2023-04-21T17:42:27.112Z,13.00
2023-04-21T17:45:05.225Z,11.00
2023-04-21T17:47:42.078Z,11.00
2023-04-21T17:50:16.197Z,11.00
2023-04-21T17:52:50.018Z,9.50
2023-04-21T17:55:34.353Z,13.00
2023-04-21T17:58:15.960Z,12.00
2023-04-21T18:00:55.666Z,11.00
2023-04-21T18:03:37.349Z,10.00
2023-04-21T18:08:59.447Z,12.00
2023-04-21T18:11:35.829Z,13.00
2023-04-21T18:14:17.204Z,21.00
2023-04-21T18:16:50.929Z,21.00
2023-04-21T18:22:00.717Z,12.00
2023-04-21T18:24:48.722Z,14.00
2023-04-21T18:27:31.176Z,11.50
2023-04-21T18:30:16.264Z,14.00
2023-04-21T18:32:55.749Z,17.00
2023-04-21T18:35:38.903Z,15.50
2023-04-21T18:38:15.743Z,16.50
2023-04-21T18:40:46.636Z,21.00
2023-04-21T18:43:23.508Z,32.00
2023-04-21T18:45:59.613Z,34.00
2023-04-21T18:48:36.398Z,33.00
2023-04-21T18:51:06.822Z,37.00
2023-04-21T18:53:42.563Z,34.00
2023-04-21T18:56:31.356Z,33.00
2023-04-21T18:59:02.421Z,35.50
2023-04-21T19:01:36.430Z,34.50
2023-04-21T19:04:10.819Z,33.00
2023-04-21T19:06:53.208Z,29.00
2023-04-21T19:09:28.266Z,35.00
2023-04-21T19:12:08.060Z,34.00
2023-04-21T19:17:28.423Z,36.00
2023-04-21T19:19:59.536Z,33.00
2023-04-21T19:22:39.761Z,26.00
2023-04-21T19:25:12.054Z,43.00
2023-04-21T19:27:44.587Z,30.00
2023-04-21T19:30:16.282Z,25.50
2023-04-21T19:32:47.779Z,30.00
2023-04-21T19:35:16.659Z,22.00
2023-04-21T19:37:50.773Z,22.50
2023-04-21T19:40:19.830Z,22.00
2023-04-21T19:42:53.466Z,20.50
2023-04-21T19:45:30.489Z,21.00
2023-04-21T19:48:01.795Z,21.00
2023-04-21T19:50:35.940Z,21.00
2023-04-21T19:53:04.468Z,24.00
2023-04-21T19:55:35.929Z,24.00
2023-04-21T19:58:09.377Z,26.00
2023-04-21T20:00:46.346Z,28.50
2023-04-21T20:03:17.804Z,31.00
2023-04-21T20:05:50.543Z,28.00
2023-04-21T20:08:22.935Z,21.50
2023-04-21T20:11:01.812Z,15.00
2023-04-21T20:13:35.878Z,15.00
2023-04-21T20:16:12.145Z,11.50
2023-04-21T20:18:49.098Z,11.00
2023-04-21T20:23:50.922Z,14.00
2023-04-21T20:26:29.967Z,14.50
2023-04-21T20:28:58.331Z,9.00
2023-04-21T20:31:39.981Z,13.00
2023-04-21T20:34:13.521Z,14.00
2023-04-21T20:36:44.968Z,15.00
2023-04-21T20:39:25.469Z,13.50
2023-04-21T20:42:08.833Z,14.00
2023-04-21T20:44:52.879Z,13.00
2023-04-21T20:47:29.742Z,13.00
2023-04-21T20:50:01.082Z,14.00
2023-04-21T20:53:02.412Z,19.00
2023-04-21T20:58:16.202Z,9.00
2023-04-21T21:00:55.393Z,12.00
2023-04-21T21:06:22.037Z,11.50
2023-04-21T21:08:58.305Z,11.50
2023-04-21T21:12:01.069Z,15.00
2023-04-21T21:14:42.649Z,13.00
2023-04-21T21:17:27.609Z,13.00
2023-04-21T21:20:05.420Z,13.00
2023-04-21T21:23:11.799Z,11.67
2023-04-21T21:25:46.228Z,12.00
2023-04-21T21:28:30.766Z,12.00
2023-04-21T21:33:41.237Z,11.00
2023-04-21T21:36:23.288Z,11.00
2023-04-21T21:39:11.006Z,9.00
2023-04-21T21:41:51.308Z,10.00
2023-04-21T21:44:33.422Z,7.00
2023-04-21T21:47:14.678Z,10.00
2023-04-21T21:49:58.777Z,10.00
2023-04-21T21:52:44.466Z,10.00
2023-04-21T21:55:26.795Z,10.00
2023-04-21T21:58:04.132Z,13.00
2023-04-21T22:00:51.934Z,10.50
2023-04-21T22:03:28.984Z,11.00
2023-04-21T22:06:02.038Z,10.00
2023-04-21T22:08:30.759Z,10.50
2023-04-21T22:11:06.009Z,11.50
2023-04-21T22:13:37.922Z,10.00
2023-04-21T22:16:12.875Z,11.00
2023-04-21T22:18:49.705Z,9.00
2023-04-21T22:21:21.246Z,6.00
2023-04-21T22:24:03.074Z,10.00
2023-04-21T22:26:48.270Z,8.50
2023-04-21T22:29:24.227Z,13.00
2023-04-21T22:31:58.310Z,5.00
2023-04-21T22:34:29.905Z,6.00
2023-04-21T22:37:10.864Z,5.00
2023-04-21T22:39:57.473Z,8.00
2023-04-21T22:42:49.413Z,9.00
2023-04-21T22:45:23.519Z,7.50
2023-04-21T22:48:05.151Z,6.50
2023-04-21T22:50:59.300Z,10.00
2023-04-21T22:53:35.523Z,15.50
2023-04-21T22:56:16.070Z,11.00
2023-04-21T22:58:52.579Z,6.00
2023-04-21T23:01:26.449Z,9.00
2023-04-21T23:04:14.204Z,8.00
2023-04-21T23:06:57.910Z,12.00
2023-04-21T23:09:31.872Z,11.00
2023-04-21T23:12:06.419Z,10.00
2023-04-21T23:14:37.728Z,8.00
2023-04-21T23:17:08.961Z,9.50
2023-04-21T23:19:40.607Z,9.00
2023-04-21T23:22:11.974Z,7.00
2023-04-21T23:24:43.308Z,19.50
2023-04-21T23:27:14.151Z,12.00
2023-04-21T23:29:44.677Z,14.00
2023-04-21T23:32:12.831Z,6.00
2023-04-21T23:34:41.315Z,6.00
2023-04-21T23:37:11.814Z,7.00
2023-04-21T23:39:42.854Z,6.25
2023-04-21T23:42:16.722Z,10.00
2023-04-21T23:44:45.157Z,8.00
2023-04-21T23:47:16.289Z,6.00
2023-04-21T23:52:29.308Z,7.00
2023-04-21T23:55:00.558Z,8.50
2023-04-21T23:57:34.386Z,6.00
